sensor_id;sensor_type;location;lat;lon;timestamp;P1;durP1;ratioP1;P2;durP2;ratioP2
36629;SDS011;36256;42.154;23.002;2022-08-21T00:00:13;14.38;;;4.35;;
36629;SDS011;36256;42.154;23.002;2022-08-21T00:02:46;12.35;;;4.10;;
36629;SDS011;36256;42.154;23.002;2022-08-21T00:05:16;12.85;;;4.10;;
36629;SDS011;36256;42.154;23.002;2022-08-21T00:07:42;14.48;;;4.57;;
36629;SDS011;36256;42.154;23.002;2022-08-21T00:10:10;10.55;;;4.30;;
36629;SDS011;36256;42.154;23.002;2022-08-21T00:12:37;9.30;;;4.57;;
36629;SDS011;36256;42.154;23.002;2022-08-21T00:17:33;16.45;;;4.78;;
36629;SDS011;36256;42.154;23.002;2022-08-21T00:20:01;13.80;;;4.90;;
36629;SDS011;36256;42.154;23.002;2022-08-21T00:22:29;11.85;;;4.28;;
36629;SDS011;36256;42.154;23.002;2022-08-21T00:24:56;12.73;;;4.35;;
36629;SDS011;36256;42.154;23.002;2022-08-21T00:27:22;14.10;;;4.57;;
36629;SDS011;36256;42.154;23.002;2022-08-21T00:29:49;14.13;;;4.72;;
36629;SDS011;36256;42.154;23.002;2022-08-21T00:32:19;15.48;;;5.50;;
36629;SDS011;36256;42.154;23.002;2022-08-21T00:34:47;15.50;;;5.10;;
36629;SDS011;36256;42.154;23.002;2022-08-21T00:37:14;12.18;;;4.65;;
36629;SDS011;36256;42.154;23.002;2022-08-21T00:39:41;14.10;;;4.65;;
36629;SDS011;36256;42.154;23.002;2022-08-21T00:42:07;16.35;;;5.25;;
36629;SDS011;36256;42.154;23.002;2022-08-21T00:44:34;10.40;;;4.85;;
36629;SDS011;36256;42.154;23.002;2022-08-21T00:47:01;15.68;;;5.28;;
36629;SDS011;36256;42.154;23.002;2022-08-21T00:49:28;12.23;;;4.53;;
36629;SDS011;36256;42.154;23.002;2022-08-21T00:51:57;14.88;;;5.00;;
36629;SDS011;36256;42.154;23.002;2022-08-21T00:54:27;12.77;;;5.03;;
36629;SDS011;36256;42.154;23.002;2022-08-21T00:56:59;18.92;;;5.28;;
36629;SDS011;36256;42.154;23.002;2022-08-21T00:59:32;10.40;;;4.97;;
36629;SDS011;36256;42.154;23.002;2022-08-21T01:02:04;12.73;;;4.97;;
36629;SDS011;36256;42.154;23.002;2022-08-21T01:04:33;15.18;;;5.50;;
36629;SDS011;36256;42.154;23.002;2022-08-21T01:09:27;18.85;;;6.65;;
36629;SDS011;36256;42.154;23.002;2022-08-21T01:11:54;21.20;;;6.85;;
36629;SDS011;36256;42.154;23.002;2022-08-21T01:14:21;16.83;;;6.97;;
36629;SDS011;36256;42.154;23.002;2022-08-21T01:16:50;14.18;;;7.22;;
36629;SDS011;36256;42.154;23.002;2022-08-21T01:19:19;16.00;;;6.22;;
36629;SDS011;36256;42.154;23.002;2022-08-21T01:21:47;13.60;;;6.38;;
36629;SDS011;36256;42.154;23.002;2022-08-21T01:24:14;12.55;;;6.85;;
36629;SDS011;36256;42.154;23.002;2022-08-21T01:26:41;19.58;;;7.55;;
36629;SDS011;36256;42.154;23.002;2022-08-21T01:29:14;15.80;;;7.53;;
36629;SDS011;36256;42.154;23.002;2022-08-21T01:31:49;17.23;;;7.53;;
36629;SDS011;36256;42.154;23.002;2022-08-21T01:34:15;19.42;;;6.43;;
36629;SDS011;36256;42.154;23.002;2022-08-21T01:39:11;12.98;;;6.85;;
36629;SDS011;36256;42.154;23.002;2022-08-21T01:41:38;11.50;;;5.95;;
36629;SDS011;36256;42.154;23.002;2022-08-21T01:44:05;14.55;;;6.65;;
36629;SDS011;36256;42.154;23.002;2022-08-21T01:46:31;16.77;;;6.80;;
36629;SDS011;36256;42.154;23.002;2022-08-21T01:48:58;17.10;;;6.82;;
36629;SDS011;36256;42.154;23.002;2022-08-21T01:51:25;14.18;;;6.53;;
36629;SDS011;36256;42.154;23.002;2022-08-21T01:53:51;12.63;;;6.93;;
36629;SDS011;36256;42.154;23.002;2022-08-21T01:56:18;17.80;;;7.78;;
36629;SDS011;36256;42.154;23.002;2022-08-21T01:58:45;16.48;;;7.15;;
36629;SDS011;36256;42.154;23.002;2022-08-21T02:01:13;19.00;;;7.20;;
36629;SDS011;36256;42.154;23.002;2022-08-21T02:03:40;14.23;;;7.25;;
36629;SDS011;36256;42.154;23.002;2022-08-21T02:06:11;13.57;;;6.82;;
36629;SDS011;36256;42.154;23.002;2022-08-21T02:08:41;15.20;;;7.70;;
36629;SDS011;36256;42.154;23.002;2022-08-21T02:11:07;14.48;;;7.32;;
36629;SDS011;36256;42.154;23.002;2022-08-21T02:13:34;14.38;;;7.57;;
36629;SDS011;36256;42.154;23.002;2022-08-21T02:16:01;12.57;;;6.97;;
36629;SDS011;36256;42.154;23.002;2022-08-21T02:18:27;14.30;;;7.15;;
36629;SDS011;36256;42.154;23.002;2022-08-21T02:20:54;9.95;;;7.03;;
36629;SDS011;36256;42.154;23.002;2022-08-21T02:23:22;9.23;;;6.82;;
36629;SDS011;36256;42.154;23.002;2022-08-21T02:26:02;15.27;;;7.20;;
36629;SDS011;36256;42.154;23.002;2022-08-21T02:28:31;16.27;;;6.75;;
36629;SDS011;36256;42.154;23.002;2022-08-21T02:30:58;15.27;;;6.40;;
36629;SDS011;36256;42.154;23.002;2022-08-21T02:33:26;9.93;;;6.65;;
36629;SDS011;36256;42.154;23.002;2022-08-21T02:35:53;10.88;;;6.95;;
36629;SDS011;36256;42.154;23.002;2022-08-21T02:40:49;11.35;;;6.30;;
36629;SDS011;36256;42.154;23.002;2022-08-21T02:43:17;13.57;;;6.50;;
36629;SDS011;36256;42.154;23.002;2022-08-21T02:45:46;14.30;;;7.22;;
36629;SDS011;36256;42.154;23.002;2022-08-21T02:48:15;13.02;;;7.10;;
36629;SDS011;36256;42.154;23.002;2022-08-21T02:50:45;22.55;;;7.18;;
36629;SDS011;36256;42.154;23.002;2022-08-21T02:53:14;15.07;;;7.70;;
36629;SDS011;36256;42.154;23.002;2022-08-21T02:55:46;16.25;;;7.53;;
36629;SDS011;36256;42.154;23.002;2022-08-21T02:58:16;12.98;;;7.60;;
36629;SDS011;36256;42.154;23.002;2022-08-21T03:00:46;14.55;;;7.38;;
36629;SDS011;36256;42.154;23.002;2022-08-21T03:03:13;14.35;;;7.20;;
36629;SDS011;36256;42.154;23.002;2022-08-21T03:05:41;13.60;;;7.15;;
36629;SDS011;36256;42.154;23.002;2022-08-21T03:08:08;16.13;;;7.50;;
36629;SDS011;36256;42.154;23.002;2022-08-21T03:10:38;12.32;;;7.30;;
36629;SDS011;36256;42.154;23.002;2022-08-21T03:13:06;13.48;;;6.93;;
36629;SDS011;36256;42.154;23.002;2022-08-21T03:15:34;18.35;;;7.45;;
36629;SDS011;36256;42.154;23.002;2022-08-21T03:18:01;15.93;;;6.63;;
36629;SDS011;36256;42.154;23.002;2022-08-21T03:20:29;16.20;;;7.28;;
36629;SDS011;36256;42.154;23.002;2022-08-21T03:22:57;24.35;;;7.85;;
36629;SDS011;36256;42.154;23.002;2022-08-21T03:25:25;12.48;;;7.80;;
36629;SDS011;36256;42.154;23.002;2022-08-21T03:28:07;13.57;;;7.30;;
36629;SDS011;36256;42.154;23.002;2022-08-21T03:30:39;16.77;;;8.48;;
36629;SDS011;36256;42.154;23.002;2022-08-21T03:33:07;10.65;;;8.18;;
36629;SDS011;36256;42.154;23.002;2022-08-21T03:35:37;15.35;;;8.05;;
36629;SDS011;36256;42.154;23.002;2022-08-21T03:38:04;11.40;;;7.95;;
36629;SDS011;36256;42.154;23.002;2022-08-21T03:40:30;18.33;;;7.88;;
36629;SDS011;36256;42.154;23.002;2022-08-21T03:42:57;16.30;;;8.20;;
36629;SDS011;36256;42.154;23.002;2022-08-21T03:45:25;15.43;;;8.35;;
36629;SDS011;36256;42.154;23.002;2022-08-21T03:50:25;15.63;;;8.32;;
36629;SDS011;36256;42.154;23.002;2022-08-21T03:52:52;15.90;;;8.23;;
36629;SDS011;36256;42.154;23.002;2022-08-21T03:55:19;15.70;;;8.57;;
36629;SDS011;36256;42.154;23.002;2022-08-21T03:57:46;19.95;;;9.02;;
36629;SDS011;36256;42.154;23.002;2022-08-21T04:00:13;15.48;;;9.00;;
36629;SDS011;36256;42.154;23.002;2022-08-21T04:02:41;15.93;;;8.65;;
36629;SDS011;36256;42.154;23.002;2022-08-21T04:05:10;19.58;;;9.00;;
36629;SDS011;36256;42.154;23.002;2022-08-21T04:07:39;13.82;;;9.68;;
36629;SDS011;36256;42.154;23.002;2022-08-21T04:10:06;16.73;;;10.02;;
36629;SDS011;36256;42.154;23.002;2022-08-21T04:12:33;18.52;;;9.57;;
36629;SDS011;36256;42.154;23.002;2022-08-21T04:15:00;17.92;;;10.18;;
36629;SDS011;36256;42.154;23.002;2022-08-21T04:17:28;14.85;;;9.30;;
36629;SDS011;36256;42.154;23.002;2022-08-21T04:19:54;16.65;;;10.32;;
36629;SDS011;36256;42.154;23.002;2022-08-21T04:22:21;14.20;;;9.07;;
36629;SDS011;36256;42.154;23.002;2022-08-21T04:24:48;19.10;;;10.40;;
36629;SDS011;36256;42.154;23.002;2022-08-21T04:27:15;12.40;;;9.77;;
36629;SDS011;36256;42.154;23.002;2022-08-21T04:29:42;20.73;;;9.98;;
36629;SDS011;36256;42.154;23.002;2022-08-21T04:32:09;14.15;;;9.77;;
36629;SDS011;36256;42.154;23.002;2022-08-21T04:34:35;17.48;;;10.05;;
36629;SDS011;36256;42.154;23.002;2022-08-21T04:37:02;17.60;;;9.70;;
36629;SDS011;36256;42.154;23.002;2022-08-21T04:41:56;18.27;;;9.95;;
36629;SDS011;36256;42.154;23.002;2022-08-21T04:44:22;19.83;;;9.73;;
36629;SDS011;36256;42.154;23.002;2022-08-21T04:46:49;14.73;;;9.95;;
36629;SDS011;36256;42.154;23.002;2022-08-21T04:49:16;14.35;;;9.70;;
36629;SDS011;36256;42.154;23.002;2022-08-21T04:51:42;18.63;;;9.68;;
36629;SDS011;36256;42.154;23.002;2022-08-21T04:54:14;14.63;;;10.20;;
36629;SDS011;36256;42.154;23.002;2022-08-21T04:56:53;12.93;;;9.90;;
36629;SDS011;36256;42.154;23.002;2022-08-21T04:59:26;15.73;;;9.73;;
36629;SDS011;36256;42.154;23.002;2022-08-21T05:02:07;13.07;;;9.48;;
36629;SDS011;36256;42.154;23.002;2022-08-21T05:04:36;13.57;;;9.30;;
36629;SDS011;36256;42.154;23.002;2022-08-21T05:07:06;14.95;;;10.18;;
36629;SDS011;36256;42.154;23.002;2022-08-21T05:09:36;13.77;;;9.52;;
36629;SDS011;36256;42.154;23.002;2022-08-21T05:12:04;16.05;;;10.02;;
36629;SDS011;36256;42.154;23.002;2022-08-21T05:14:31;14.43;;;10.00;;
36629;SDS011;36256;42.154;23.002;2022-08-21T05:19:25;16.48;;;10.07;;
36629;SDS011;36256;42.154;23.002;2022-08-21T05:21:52;14.18;;;10.63;;
36629;SDS011;36256;42.154;23.002;2022-08-21T05:24:19;16.30;;;10.40;;
36629;SDS011;36256;42.154;23.002;2022-08-21T05:26:46;15.80;;;10.30;;
36629;SDS011;36256;42.154;23.002;2022-08-21T05:29:13;18.77;;;10.73;;
36629;SDS011;36256;42.154;23.002;2022-08-21T05:31:41;19.75;;;11.18;;
36629;SDS011;36256;42.154;23.002;2022-08-21T05:34:08;22.00;;;11.20;;
36629;SDS011;36256;42.154;23.002;2022-08-21T05:36:35;17.58;;;11.75;;
36629;SDS011;36256;42.154;23.002;2022-08-21T05:39:02;18.90;;;11.98;;
36629;SDS011;36256;42.154;23.002;2022-08-21T05:41:29;16.48;;;12.48;;
36629;SDS011;36256;42.154;23.002;2022-08-21T05:43:59;18.70;;;11.73;;
36629;SDS011;36256;42.154;23.002;2022-08-21T05:46:26;20.30;;;12.10;;
36629;SDS011;36256;42.154;23.002;2022-08-21T05:48:52;17.83;;;12.40;;
36629;SDS011;36256;42.154;23.002;2022-08-21T05:51:19;24.05;;;11.27;;
36629;SDS011;36256;42.154;23.002;2022-08-21T05:53:46;20.20;;;11.60;;
36629;SDS011;36256;42.154;23.002;2022-08-21T05:58:41;19.80;;;10.55;;
36629;SDS011;36256;42.154;23.002;2022-08-21T06:01:08;18.10;;;11.27;;
36629;SDS011;36256;42.154;23.002;2022-08-21T06:03:36;16.90;;;10.60;;
36629;SDS011;36256;42.154;23.002;2022-08-21T06:06:05;16.35;;;11.00;;
36629;SDS011;36256;42.154;23.002;2022-08-21T06:08:32;18.15;;;10.90;;
36629;SDS011;36256;42.154;23.002;2022-08-21T06:10:59;21.25;;;11.00;;
36629;SDS011;36256;42.154;23.002;2022-08-21T06:13:27;25.20;;;11.02;;
36629;SDS011;36256;42.154;23.002;2022-08-21T06:16:28;20.33;;;11.68;;
36629;SDS011;36256;42.154;23.002;2022-08-21T06:18:48;19.52;;;11.43;;
36629;SDS011;36256;42.154;23.002;2022-08-21T06:21:15;21.10;;;11.02;;
36629;SDS011;36256;42.154;23.002;2022-08-21T06:23:42;21.95;;;12.02;;
36629;SDS011;36256;42.154;23.002;2022-08-21T06:26:10;20.48;;;10.98;;
36629;SDS011;36256;42.154;23.002;2022-08-21T06:28:39;21.48;;;12.05;;
36629;SDS011;36256;42.154;23.002;2022-08-21T06:31:17;19.33;;;11.25;;
36629;SDS011;36256;42.154;23.002;2022-08-21T06:33:46;21.45;;;10.82;;
36629;SDS011;36256;42.154;23.002;2022-08-21T06:36:14;20.17;;;11.90;;
36629;SDS011;36256;42.154;23.002;2022-08-21T06:38:40;20.30;;;11.75;;
36629;SDS011;36256;42.154;23.002;2022-08-21T06:41:16;20.23;;;10.52;;
36629;SDS011;36256;42.154;23.002;2022-08-21T06:43:49;20.48;;;10.45;;
36629;SDS011;36256;42.154;23.002;2022-08-21T06:48:43;19.48;;;11.27;;
36629;SDS011;36256;42.154;23.002;2022-08-21T06:51:09;25.85;;;11.95;;
36629;SDS011;36256;42.154;23.002;2022-08-21T06:53:36;26.55;;;11.63;;
36629;SDS011;36256;42.154;23.002;2022-08-21T06:56:03;22.23;;;11.70;;
36629;SDS011;36256;42.154;23.002;2022-08-21T06:58:30;27.55;;;10.82;;
36629;SDS011;36256;42.154;23.002;2022-08-21T07:00:57;26.25;;;11.25;;
36629;SDS011;36256;42.154;23.002;2022-08-21T07:03:28;23.40;;;11.98;;
36629;SDS011;36256;42.154;23.002;2022-08-21T07:05:57;22.70;;;10.43;;
36629;SDS011;36256;42.154;23.002;2022-08-21T07:08:25;21.65;;;11.05;;
36629;SDS011;36256;42.154;23.002;2022-08-21T07:10:53;19.23;;;10.95;;
36629;SDS011;36256;42.154;23.002;2022-08-21T07:13:22;21.95;;;11.48;;
36629;SDS011;36256;42.154;23.002;2022-08-21T07:15:49;26.17;;;12.02;;
36629;SDS011;36256;42.154;23.002;2022-08-21T07:18:16;22.77;;;13.45;;
36629;SDS011;36256;42.154;23.002;2022-08-21T07:20:43;22.25;;;13.73;;
36629;SDS011;36256;42.154;23.002;2022-08-21T07:23:17;24.40;;;15.50;;
36629;SDS011;36256;42.154;23.002;2022-08-21T07:25:52;21.30;;;14.13;;
36629;SDS011;36256;42.154;23.002;2022-08-21T07:28:19;24.20;;;13.85;;
36629;SDS011;36256;42.154;23.002;2022-08-21T07:30:46;23.58;;;13.23;;
36629;SDS011;36256;42.154;23.002;2022-08-21T07:33:17;23.67;;;13.50;;
36629;SDS011;36256;42.154;23.002;2022-08-21T07:35:44;22.00;;;12.77;;
36629;SDS011;36256;42.154;23.002;2022-08-21T07:38:10;20.92;;;13.85;;
36629;SDS011;36256;42.154;23.002;2022-08-21T07:40:37;18.42;;;12.90;;
36629;SDS011;36256;42.154;23.002;2022-08-21T07:43:04;20.05;;;12.55;;
36629;SDS011;36256;42.154;23.002;2022-08-21T07:45:31;25.58;;;13.00;;
36629;SDS011;36256;42.154;23.002;2022-08-21T07:47:58;25.88;;;13.50;;
36629;SDS011;36256;42.154;23.002;2022-08-21T07:50:25;23.55;;;14.93;;
36629;SDS011;36256;42.154;23.002;2022-08-21T07:52:52;25.60;;;12.27;;
36629;SDS011;36256;42.154;23.002;2022-08-21T07:55:19;21.15;;;11.98;;
36629;SDS011;36256;42.154;23.002;2022-08-21T07:57:47;21.60;;;12.65;;
36629;SDS011;36256;42.154;23.002;2022-08-21T08:00:15;22.23;;;13.40;;
36629;SDS011;36256;42.154;23.002;2022-08-21T08:02:45;21.67;;;12.43;;
36629;SDS011;36256;42.154;23.002;2022-08-21T08:05:18;23.65;;;13.13;;
36629;SDS011;36256;42.154;23.002;2022-08-21T08:07:48;19.63;;;11.68;;
36629;SDS011;36256;42.154;23.002;2022-08-21T08:10:14;25.05;;;11.88;;
36629;SDS011;36256;42.154;23.002;2022-08-21T08:12:42;21.60;;;12.57;;
36629;SDS011;36256;42.154;23.002;2022-08-21T08:15:11;24.80;;;13.00;;
36629;SDS011;36256;42.154;23.002;2022-08-21T08:17:43;18.17;;;11.02;;
36629;SDS011;36256;42.154;23.002;2022-08-21T08:20:11;23.02;;;11.60;;
36629;SDS011;36256;42.154;23.002;2022-08-21T08:22:39;21.35;;;11.02;;
36629;SDS011;36256;42.154;23.002;2022-08-21T08:25:08;21.83;;;11.85;;
36629;SDS011;36256;42.154;23.002;2022-08-21T08:27:36;21.77;;;12.75;;
36629;SDS011;36256;42.154;23.002;2022-08-21T08:32:31;22.23;;;11.18;;
36629;SDS011;36256;42.154;23.002;2022-08-21T08:34:58;21.38;;;12.05;;
36629;SDS011;36256;42.154;23.002;2022-08-21T08:39:59;13.82;;;8.85;;
36629;SDS011;36256;42.154;23.002;2022-08-21T08:42:36;17.02;;;9.48;;
36629;SDS011;36256;42.154;23.002;2022-08-21T08:45:07;19.83;;;10.68;;
36629;SDS011;36256;42.154;23.002;2022-08-21T08:47:44;15.80;;;9.13;;
36629;SDS011;36256;42.154;23.002;2022-08-21T08:50:23;15.10;;;8.88;;
36629;SDS011;36256;42.154;23.002;2022-08-21T08:52:57;15.73;;;9.07;;
36629;SDS011;36256;42.154;23.002;2022-08-21T08:55:38;16.70;;;9.68;;
36629;SDS011;36256;42.154;23.002;2022-08-21T08:58:08;18.03;;;10.43;;
36629;SDS011;36256;42.154;23.002;2022-08-21T09:00:43;21.23;;;10.70;;
36629;SDS011;36256;42.154;23.002;2022-08-21T09:03:13;17.40;;;10.85;;
36629;SDS011;36256;42.154;23.002;2022-08-21T09:05:46;17.90;;;11.05;;
36629;SDS011;36256;42.154;23.002;2022-08-21T09:11:12;17.42;;;10.18;;
36629;SDS011;36256;42.154;23.002;2022-08-21T09:20:01;18.75;;;10.25;;
36629;SDS011;36256;42.154;23.002;2022-08-21T09:27:49;16.25;;;10.80;;
36629;SDS011;36256;42.154;23.002;2022-08-21T09:30:17;16.35;;;10.98;;
36629;SDS011;36256;42.154;23.002;2022-08-21T09:32:45;18.23;;;10.20;;
36629;SDS011;36256;42.154;23.002;2022-08-21T09:35:16;18.63;;;11.30;;
36629;SDS011;36256;42.154;23.002;2022-08-21T09:40:35;16.10;;;10.20;;
36629;SDS011;36256;42.154;23.002;2022-08-21T09:45:37;17.75;;;11.13;;
36629;SDS011;36256;42.154;23.002;2022-08-21T09:48:12;22.17;;;10.95;;
36629;SDS011;36256;42.154;23.002;2022-08-21T09:50:44;16.25;;;11.07;;
36629;SDS011;36256;42.154;23.002;2022-08-21T09:53:21;18.35;;;10.88;;
36629;SDS011;36256;42.154;23.002;2022-08-21T09:56:04;17.13;;;10.00;;
36629;SDS011;36256;42.154;23.002;2022-08-21T09:59:00;20.45;;;11.05;;
36629;SDS011;36256;42.154;23.002;2022-08-21T10:01:42;15.82;;;10.70;;
36629;SDS011;36256;42.154;23.002;2022-08-21T10:04:10;17.60;;;11.10;;
36629;SDS011;36256;42.154;23.002;2022-08-21T10:06:37;19.65;;;10.82;;
36629;SDS011;36256;42.154;23.002;2022-08-21T10:09:09;14.48;;;9.75;;
36629;SDS011;36256;42.154;23.002;2022-08-21T10:12:15;17.35;;;11.32;;
36629;SDS011;36256;42.154;23.002;2022-08-21T10:17:16;13.50;;;9.55;;
36629;SDS011;36256;42.154;23.002;2022-08-21T10:22:38;15.45;;;10.40;;
36629;SDS011;36256;42.154;23.002;2022-08-21T10:25:19;13.48;;;9.65;;
36629;SDS011;36256;42.154;23.002;2022-08-21T10:30:45;15.63;;;9.43;;
36629;SDS011;36256;42.154;23.002;2022-08-21T10:35:51;16.15;;;9.95;;
36629;SDS011;36256;42.154;23.002;2022-08-21T10:44:35;47.38;;;14.45;;
36629;SDS011;36256;42.154;23.002;2022-08-21T10:50:02;39.83;;;16.33;;
36629;SDS011;36256;42.154;23.002;2022-08-21T10:55:43;20.35;;;13.82;;
36629;SDS011;36256;42.154;23.002;2022-08-21T10:58:17;25.83;;;13.57;;
36629;SDS011;36256;42.154;23.002;2022-08-21T11:00:51;22.90;;;13.27;;
36629;SDS011;36256;42.154;23.002;2022-08-21T11:03:33;21.40;;;14.00;;
36629;SDS011;36256;42.154;23.002;2022-08-21T11:06:15;17.42;;;13.93;;
36629;SDS011;36256;42.154;23.002;2022-08-21T11:09:29;19.27;;;14.32;;
36629;SDS011;36256;42.154;23.002;2022-08-21T11:11:52;23.00;;;14.30;;
36629;SDS011;36256;42.154;23.002;2022-08-21T11:17:16;19.55;;;14.35;;
36629;SDS011;36256;42.154;23.002;2022-08-21T11:30:15;20.23;;;16.13;;
36629;SDS011;36256;42.154;23.002;2022-08-21T11:33:04;30.50;;;18.92;;
36629;SDS011;36256;42.154;23.002;2022-08-21T11:51:52;28.38;;;21.17;;
36629;SDS011;36256;42.154;23.002;2022-08-21T11:57:35;27.65;;;19.75;;
36629;SDS011;36256;42.154;23.002;2022-08-21T12:03:26;24.40;;;17.55;;
36629;SDS011;36256;42.154;23.002;2022-08-21T12:08:35;23.00;;;17.35;;
36629;SDS011;36256;42.154;23.002;2022-08-21T12:14:20;29.65;;;19.17;;
36629;SDS011;36256;42.154;23.002;2022-08-21T12:16:37;25.67;;;19.75;;
36629;SDS011;36256;42.154;23.002;2022-08-21T12:19:06;29.35;;;19.90;;
36629;SDS011;36256;42.154;23.002;2022-08-21T12:26:56;30.05;;;21.35;;
36629;SDS011;36256;42.154;23.002;2022-08-21T12:29:24;30.38;;;21.95;;
36629;SDS011;36256;42.154;23.002;2022-08-21T12:32:01;29.70;;;21.02;;
36629;SDS011;36256;42.154;23.002;2022-08-21T12:39:49;30.10;;;20.88;;
36629;SDS011;36256;42.154;23.002;2022-08-21T12:42:20;30.40;;;21.80;;
36629;SDS011;36256;42.154;23.002;2022-08-21T12:44:53;27.20;;;21.13;;
36629;SDS011;36256;42.154;23.002;2022-08-21T12:47:33;30.40;;;20.73;;
36629;SDS011;36256;42.154;23.002;2022-08-21T12:50:11;27.67;;;20.25;;
36629;SDS011;36256;42.154;23.002;2022-08-21T12:52:54;26.27;;;19.38;;
36629;SDS011;36256;42.154;23.002;2022-08-21T12:55:46;25.15;;;18.73;;
36629;SDS011;36256;42.154;23.002;2022-08-21T12:58:20;29.05;;;19.50;;
36629;SDS011;36256;42.154;23.002;2022-08-21T13:00:56;25.30;;;18.80;;
36629;SDS011;36256;42.154;23.002;2022-08-21T13:03:31;26.63;;;18.70;;
36629;SDS011;36256;42.154;23.002;2022-08-21T13:06:03;23.90;;;17.77;;
36629;SDS011;36256;42.154;23.002;2022-08-21T13:08:31;23.15;;;16.27;;
36629;SDS011;36256;42.154;23.002;2022-08-21T13:11:06;16.33;;;13.07;;
36629;SDS011;36256;42.154;23.002;2022-08-21T13:13:40;17.20;;;11.73;;
36629;SDS011;36256;42.154;23.002;2022-08-21T13:16:18;13.55;;;11.25;;
36629;SDS011;36256;42.154;23.002;2022-08-21T13:18:56;13.30;;;9.93;;
36629;SDS011;36256;42.154;23.002;2022-08-21T13:21:27;16.25;;;9.13;;
36629;SDS011;36256;42.154;23.002;2022-08-21T13:24:06;11.32;;;8.70;;
36629;SDS011;36256;42.154;23.002;2022-08-21T13:27:00;10.73;;;7.95;;
36629;SDS011;36256;42.154;23.002;2022-08-21T13:29:28;12.88;;;7.95;;
36629;SDS011;36256;42.154;23.002;2022-08-21T13:31:58;11.55;;;7.30;;
36629;SDS011;36256;42.154;23.002;2022-08-21T13:34:33;10.82;;;7.97;;
36629;SDS011;36256;42.154;23.002;2022-08-21T13:37:06;16.63;;;11.75;;
36629;SDS011;36256;42.154;23.002;2022-08-21T13:39:34;31.02;;;19.85;;
36629;SDS011;36256;42.154;23.002;2022-08-21T13:42:04;21.00;;;15.05;;
36629;SDS011;36256;42.154;23.002;2022-08-21T13:47:04;13.65;;;10.80;;
36629;SDS011;36256;42.154;23.002;2022-08-21T13:49:34;14.63;;;10.43;;
36629;SDS011;36256;42.154;23.002;2022-08-21T13:52:03;23.88;;;16.08;;
36629;SDS011;36256;42.154;23.002;2022-08-21T13:54:34;37.35;;;22.50;;
36629;SDS011;36256;42.154;23.002;2022-08-21T13:57:03;19.45;;;13.68;;
36629;SDS011;36256;42.154;23.002;2022-08-21T13:59:41;11.73;;;9.45;;
36629;SDS011;36256;42.154;23.002;2022-08-21T14:02:09;14.60;;;10.20;;
36629;SDS011;36256;42.154;23.002;2022-08-21T14:07:22;14.90;;;10.30;;
36629;SDS011;36256;42.154;23.002;2022-08-21T14:09:52;16.98;;;10.65;;
36629;SDS011;36256;42.154;23.002;2022-08-21T14:12:36;11.85;;;10.25;;
36629;SDS011;36256;42.154;23.002;2022-08-21T14:15:09;14.15;;;10.60;;
36629;SDS011;36256;42.154;23.002;2022-08-21T14:17:39;12.25;;;10.15;;
36629;SDS011;36256;42.154;23.002;2022-08-21T14:20:09;11.88;;;7.93;;
36629;SDS011;36256;42.154;23.002;2022-08-21T14:22:45;12.85;;;8.80;;
36629;SDS011;36256;42.154;23.002;2022-08-21T14:27:56;10.60;;;8.73;;
36629;SDS011;36256;42.154;23.002;2022-08-21T14:30:39;11.57;;;8.25;;
36629;SDS011;36256;42.154;23.002;2022-08-21T14:33:09;14.50;;;8.60;;
36629;SDS011;36256;42.154;23.002;2022-08-21T14:35:38;11.77;;;7.90;;
36629;SDS011;36256;42.154;23.002;2022-08-21T14:40:43;14.98;;;8.07;;
36629;SDS011;36256;42.154;23.002;2022-08-21T14:43:13;10.52;;;7.20;;
36629;SDS011;36256;42.154;23.002;2022-08-21T14:45:40;10.80;;;7.07;;
36629;SDS011;36256;42.154;23.002;2022-08-21T14:48:07;11.50;;;7.57;;
36629;SDS011;36256;42.154;23.002;2022-08-21T14:50:34;8.65;;;6.57;;
36629;SDS011;36256;42.154;23.002;2022-08-21T14:53:01;8.57;;;6.82;;
36629;SDS011;36256;42.154;23.002;2022-08-21T14:55:37;11.93;;;7.50;;
36629;SDS011;36256;42.154;23.002;2022-08-21T14:58:23;10.98;;;7.38;;
36629;SDS011;36256;42.154;23.002;2022-08-21T15:00:52;10.20;;;7.18;;
36629;SDS011;36256;42.154;23.002;2022-08-21T15:03:20;11.43;;;7.15;;
36629;SDS011;36256;42.154;23.002;2022-08-21T15:05:50;10.20;;;6.38;;
36629;SDS011;36256;42.154;23.002;2022-08-21T15:08:17;12.40;;;6.78;;
36629;SDS011;36256;42.154;23.002;2022-08-21T15:10:44;11.20;;;6.75;;
36629;SDS011;36256;42.154;23.002;2022-08-21T15:13:32;8.73;;;6.47;;
36629;SDS011;36256;42.154;23.002;2022-08-21T15:15:59;10.18;;;6.50;;
36629;SDS011;36256;42.154;23.002;2022-08-21T15:18:27;10.80;;;6.57;;
36629;SDS011;36256;42.154;23.002;2022-08-21T15:20:55;7.20;;;5.88;;
36629;SDS011;36256;42.154;23.002;2022-08-21T15:25:49;9.10;;;6.88;;
36629;SDS011;36256;42.154;23.002;2022-08-21T15:28:16;7.95;;;6.47;;
36629;SDS011;36256;42.154;23.002;2022-08-21T15:30:44;11.20;;;6.05;;
36629;SDS011;36256;42.154;23.002;2022-08-21T15:33:12;7.85;;;5.95;;
36629;SDS011;36256;42.154;23.002;2022-08-21T15:35:38;9.80;;;5.88;;
36629;SDS011;36256;42.154;23.002;2022-08-21T15:38:06;6.55;;;5.25;;
36629;SDS011;36256;42.154;23.002;2022-08-21T15:40:36;5.93;;;4.85;;
36629;SDS011;36256;42.154;23.002;2022-08-21T15:43:04;7.60;;;5.03;;
36629;SDS011;36256;42.154;23.002;2022-08-21T15:45:32;5.78;;;4.15;;
36629;SDS011;36256;42.154;23.002;2022-08-21T15:48:00;6.15;;;4.90;;
36629;SDS011;36256;42.154;23.002;2022-08-21T15:50:27;5.93;;;4.95;;
36629;SDS011;36256;42.154;23.002;2022-08-21T15:52:55;6.38;;;4.93;;
36629;SDS011;36256;42.154;23.002;2022-08-21T15:55:22;9.63;;;4.97;;
36629;SDS011;36256;42.154;23.002;2022-08-21T16:00:23;7.78;;;5.53;;
36629;SDS011;36256;42.154;23.002;2022-08-21T16:02:55;10.75;;;5.68;;
36629;SDS011;36256;42.154;23.002;2022-08-21T16:05:23;8.15;;;5.75;;
36629;SDS011;36256;42.154;23.002;2022-08-21T16:07:50;8.35;;;5.80;;
36629;SDS011;36256;42.154;23.002;2022-08-21T16:10:19;10.82;;;6.13;;
36629;SDS011;36256;42.154;23.002;2022-08-21T16:12:49;10.43;;;6.55;;
36629;SDS011;36256;42.154;23.002;2022-08-21T16:15:19;9.93;;;6.20;;
36629;SDS011;36256;42.154;23.002;2022-08-21T16:17:47;15.75;;;7.38;;
36629;SDS011;36256;42.154;23.002;2022-08-21T16:20:19;12.35;;;7.60;;
36629;SDS011;36256;42.154;23.002;2022-08-21T16:22:51;14.60;;;6.65;;
36629;SDS011;36256;42.154;23.002;2022-08-21T16:25:19;10.95;;;6.22;;
36629;SDS011;36256;42.154;23.002;2022-08-21T16:27:49;17.65;;;7.07;;
36629;SDS011;36256;42.154;23.002;2022-08-21T16:30:24;13.85;;;6.50;;
36629;SDS011;36256;42.154;23.002;2022-08-21T16:35:19;14.18;;;7.55;;
36629;SDS011;36256;42.154;23.002;2022-08-21T16:37:46;12.73;;;8.68;;
36629;SDS011;36256;42.154;23.002;2022-08-21T16:40:18;12.32;;;7.85;;
36629;SDS011;36256;42.154;23.002;2022-08-21T16:42:45;13.70;;;8.00;;
36629;SDS011;36256;42.154;23.002;2022-08-21T16:45:15;15.30;;;9.07;;
36629;SDS011;36256;42.154;23.002;2022-08-21T16:47:43;12.00;;;7.35;;
36629;SDS011;36256;42.154;23.002;2022-08-21T16:50:11;11.48;;;6.68;;
36629;SDS011;36256;42.154;23.002;2022-08-21T16:52:41;11.27;;;6.78;;